sensor_id;sensor_type;location;lat;lon;timestamp;P1;durP1;ratioP1;P2;durP2;ratioP2
3052;SDS011;1536;51.098;6.414;2023-11-22T00:02:13;15.00;;;12.35;;
3052;SDS011;1536;51.098;6.414;2023-11-22T00:04:40;18.50;;;13.88;;
3052;SDS011;1536;51.098;6.414;2023-11-22T00:07:06;17.75;;;13.18;;
3052;SDS011;1536;51.098;6.414;2023-11-22T00:09:33;16.02;;;12.32;;
3052;SDS011;1536;51.098;6.414;2023-11-22T00:12:00;14.57;;;12.82;;
3052;SDS011;1536;51.098;6.414;2023-11-22T00:14:27;19.70;;;12.07;;
3052;SDS011;1536;51.098;6.414;2023-11-22T00:16:54;17.05;;;13.05;;
3052;SDS011;1536;51.098;6.414;2023-11-22T00:19:22;17.13;;;12.50;;
3052;SDS011;1536;51.098;6.414;2023-11-22T00:21:49;19.52;;;12.52;;
3052;SDS011;1536;51.098;6.414;2023-11-22T00:24:16;16.95;;;13.50;;
3052;SDS011;1536;51.098;6.414;2023-11-22T00:26:43;14.38;;;12.27;;
3052;SDS011;1536;51.098;6.414;2023-11-22T00:29:10;16.13;;;12.40;;
3052;SDS011;1536;51.098;6.414;2023-11-22T00:31:37;16.00;;;12.95;;
3052;SDS011;1536;51.098;6.414;2023-11-22T00:34:04;13.07;;;11.65;;
3052;SDS011;1536;51.098;6.414;2023-11-22T00:36:33;16.08;;;12.90;;
3052;SDS011;1536;51.098;6.414;2023-11-22T00:38:59;15.45;;;13.32;;
3052;SDS011;1536;51.098;6.414;2023-11-22T00:41:29;17.90;;;13.82;;
3052;SDS011;1536;51.098;6.414;2023-11-22T00:43:56;19.08;;;12.25;;
3052;SDS011;1536;51.098;6.414;2023-11-22T00:46:23;15.70;;;12.75;;
3052;SDS011;1536;51.098;6.414;2023-11-22T00:48:50;15.15;;;12.02;;
3052;SDS011;1536;51.098;6.414;2023-11-22T00:51:17;16.70;;;14.50;;
3052;SDS011;1536;51.098;6.414;2023-11-22T00:53:46;16.83;;;13.05;;
3052;SDS011;1536;51.098;6.414;2023-11-22T00:56:12;15.88;;;13.18;;
3052;SDS011;1536;51.098;6.414;2023-11-22T00:58:39;14.57;;;12.77;;
3052;SDS011;1536;51.098;6.414;2023-11-22T01:01:06;14.70;;;12.32;;
3052;SDS011;1536;51.098;6.414;2023-11-22T01:03:33;16.20;;;13.45;;
3052;SDS011;1536;51.098;6.414;2023-11-22T01:06:00;16.33;;;12.48;;
3052;SDS011;1536;51.098;6.414;2023-11-22T01:08:27;14.95;;;11.82;;
3052;SDS011;1536;51.098;6.414;2023-11-22T01:10:55;17.33;;;12.32;;
3052;SDS011;1536;51.098;6.414;2023-11-22T01:13:23;16.13;;;12.93;;
3052;SDS011;1536;51.098;6.414;2023-11-22T01:15:50;19.50;;;13.77;;
3052;SDS011;1536;51.098;6.414;2023-11-22T01:18:17;16.15;;;13.52;;
3052;SDS011;1536;51.098;6.414;2023-11-22T01:20:45;11.98;;;10.30;;
3052;SDS011;1536;51.098;6.414;2023-11-22T01:23:11;18.13;;;12.63;;
3052;SDS011;1536;51.098;6.414;2023-11-22T01:25:39;13.50;;;11.70;;
3052;SDS011;1536;51.098;6.414;2023-11-22T01:28:07;18.00;;;12.00;;
3052;SDS011;1536;51.098;6.414;2023-11-22T01:30:36;17.10;;;11.88;;
3052;SDS011;1536;51.098;6.414;2023-11-22T01:33:03;13.00;;;11.55;;
3052;SDS011;1536;51.098;6.414;2023-11-22T01:35:30;14.85;;;11.93;;
3052;SDS011;1536;51.098;6.414;2023-11-22T01:37:58;15.65;;;12.52;;
3052;SDS011;1536;51.098;6.414;2023-11-22T01:40:27;14.77;;;11.95;;
3052;SDS011;1536;51.098;6.414;2023-11-22T01:42:53;15.43;;;11.50;;
3052;SDS011;1536;51.098;6.414;2023-11-22T01:45:22;15.15;;;12.25;;
3052;SDS011;1536;51.098;6.414;2023-11-22T01:47:49;15.65;;;11.48;;
3052;SDS011;1536;51.098;6.414;2023-11-22T01:50:17;16.10;;;12.20;;
3052;SDS011;1536;51.098;6.414;2023-11-22T01:52:44;16.73;;;11.48;;
3052;SDS011;1536;51.098;6.414;2023-11-22T01:55:11;15.02;;;11.90;;
3052;SDS011;1536;51.098;6.414;2023-11-22T01:57:41;14.10;;;11.35;;
3052;SDS011;1536;51.098;6.414;2023-11-22T02:00:08;15.05;;;11.90;;
3052;SDS011;1536;51.098;6.414;2023-11-22T02:02:41;15.98;;;11.52;;
3052;SDS011;1536;51.098;6.414;2023-11-22T02:05:08;14.88;;;11.98;;
3052;SDS011;1536;51.098;6.414;2023-11-22T02:07:36;14.98;;;11.10;;
3052;SDS011;1536;51.098;6.414;2023-11-22T02:10:06;14.40;;;11.90;;
3052;SDS011;1536;51.098;6.414;2023-11-22T02:12:33;14.15;;;11.07;;
3052;SDS011;1536;51.098;6.414;2023-11-22T02:15:00;16.20;;;11.70;;
3052;SDS011;1536;51.098;6.414;2023-11-22T02:17:28;17.33;;;11.40;;
3052;SDS011;1536;51.098;6.414;2023-11-22T02:19:56;14.25;;;10.75;;
3052;SDS011;1536;51.098;6.414;2023-11-22T02:22:23;15.85;;;12.65;;
3052;SDS011;1536;51.098;6.414;2023-11-22T02:24:51;15.93;;;12.45;;
3052;SDS011;1536;51.098;6.414;2023-11-22T02:27:18;16.63;;;13.00;;
3052;SDS011;1536;51.098;6.414;2023-11-22T02:29:45;15.02;;;12.40;;
3052;SDS011;1536;51.098;6.414;2023-11-22T02:32:12;18.05;;;13.38;;
3052;SDS011;1536;51.098;6.414;2023-11-22T02:34:39;17.38;;;12.48;;
3052;SDS011;1536;51.098;6.414;2023-11-22T02:37:06;17.35;;;12.40;;
3052;SDS011;1536;51.098;6.414;2023-11-22T02:39:35;16.33;;;12.73;;
3052;SDS011;1536;51.098;6.414;2023-11-22T02:42:14;16.73;;;13.95;;
3052;SDS011;1536;51.098;6.414;2023-11-22T02:44:40;14.82;;;11.70;;
3052;SDS011;1536;51.098;6.414;2023-11-22T02:47:07;21.40;;;13.50;;
3052;SDS011;1536;51.098;6.414;2023-11-22T02:49:35;15.30;;;13.70;;
3052;SDS011;1536;51.098;6.414;2023-11-22T02:52:02;17.00;;;13.73;;
3052;SDS011;1536;51.098;6.414;2023-11-22T02:54:29;16.38;;;13.90;;
3052;SDS011;1536;51.098;6.414;2023-11-22T02:56:56;16.20;;;14.10;;
3052;SDS011;1536;51.098;6.414;2023-11-22T02:59:24;19.25;;;13.50;;
3052;SDS011;1536;51.098;6.414;2023-11-22T03:01:51;20.73;;;13.43;;
3052;SDS011;1536;51.098;6.414;2023-11-22T03:04:18;14.63;;;12.35;;
3052;SDS011;1536;51.098;6.414;2023-11-22T03:06:44;18.65;;;12.98;;
3052;SDS011;1536;51.098;6.414;2023-11-22T03:09:11;17.50;;;12.63;;
3052;SDS011;1536;51.098;6.414;2023-11-22T03:11:39;19.35;;;14.55;;
3052;SDS011;1536;51.098;6.414;2023-11-22T03:14:07;19.50;;;12.88;;
3052;SDS011;1536;51.098;6.414;2023-11-22T03:16:37;21.85;;;14.45;;
3052;SDS011;1536;51.098;6.414;2023-11-22T03:19:05;17.95;;;14.00;;
3052;SDS011;1536;51.098;6.414;2023-11-22T03:21:38;18.63;;;13.93;;
3052;SDS011;1536;51.098;6.414;2023-11-22T03:24:06;18.30;;;14.27;;
3052;SDS011;1536;51.098;6.414;2023-11-22T03:26:33;19.52;;;14.77;;
3052;SDS011;1536;51.098;6.414;2023-11-22T03:29:00;22.42;;;16.83;;
3052;SDS011;1536;51.098;6.414;2023-11-22T03:31:27;20.95;;;16.20;;
3052;SDS011;1536;51.098;6.414;2023-11-22T03:33:56;22.55;;;16.05;;
3052;SDS011;1536;51.098;6.414;2023-11-22T03:36:23;23.92;;;17.08;;
3052;SDS011;1536;51.098;6.414;2023-11-22T03:38:50;23.63;;;17.05;;
3052;SDS011;1536;51.098;6.414;2023-11-22T03:41:17;25.05;;;17.25;;
3052;SDS011;1536;51.098;6.414;2023-11-22T03:43:44;24.50;;;16.95;;
3052;SDS011;1536;51.098;6.414;2023-11-22T03:46:12;26.88;;;18.92;;
3052;SDS011;1536;51.098;6.414;2023-11-22T03:48:38;28.55;;;17.23;;
3052;SDS011;1536;51.098;6.414;2023-11-22T03:51:06;27.83;;;18.45;;
3052;SDS011;1536;51.098;6.414;2023-11-22T03:53:33;22.35;;;16.33;;
3052;SDS011;1536;51.098;6.414;2023-11-22T03:56:00;24.08;;;17.30;;
3052;SDS011;1536;51.098;6.414;2023-11-22T03:58:27;24.48;;;17.42;;
3052;SDS011;1536;51.098;6.414;2023-11-22T04:00:53;26.10;;;18.90;;
3052;SDS011;1536;51.098;6.414;2023-11-22T04:03:20;22.35;;;17.15;;
3052;SDS011;1536;51.098;6.414;2023-11-22T04:05:47;22.77;;;16.75;;
3052;SDS011;1536;51.098;6.414;2023-11-22T04:08:15;22.55;;;16.45;;
3052;SDS011;1536;51.098;6.414;2023-11-22T04:10:42;27.08;;;18.60;;
3052;SDS011;1536;51.098;6.414;2023-11-22T04:13:09;34.50;;;20.20;;
3052;SDS011;1536;51.098;6.414;2023-11-22T04:15:36;29.73;;;19.58;;
3052;SDS011;1536;51.098;6.414;2023-11-22T04:18:03;29.38;;;19.63;;
3052;SDS011;1536;51.098;6.414;2023-11-22T04:20:30;30.85;;;20.20;;
3052;SDS011;1536;51.098;6.414;2023-11-22T04:22:56;27.80;;;18.80;;
3052;SDS011;1536;51.098;6.414;2023-11-22T04:25:26;36.08;;;21.17;;
3052;SDS011;1536;51.098;6.414;2023-11-22T04:27:54;32.80;;;21.67;;
3052;SDS011;1536;51.098;6.414;2023-11-22T04:30:21;32.63;;;19.35;;
3052;SDS011;1536;51.098;6.414;2023-11-22T04:32:49;38.60;;;22.27;;
3052;SDS011;1536;51.098;6.414;2023-11-22T04:35:16;38.33;;;22.17;;
3052;SDS011;1536;51.098;6.414;2023-11-22T04:37:43;29.02;;;21.20;;
3052;SDS011;1536;51.098;6.414;2023-11-22T04:40:10;33.55;;;19.33;;
3052;SDS011;1536;51.098;6.414;2023-11-22T04:42:40;25.88;;;18.10;;
3052;SDS011;1536;51.098;6.414;2023-11-22T04:45:07;31.33;;;19.33;;
3052;SDS011;1536;51.098;6.414;2023-11-22T04:47:35;31.13;;;21.67;;
3052;SDS011;1536;51.098;6.414;2023-11-22T04:50:02;28.92;;;18.50;;
3052;SDS011;1536;51.098;6.414;2023-11-22T04:52:29;28.70;;;21.05;;
3052;SDS011;1536;51.098;6.414;2023-11-22T04:54:56;31.80;;;19.45;;
3052;SDS011;1536;51.098;6.414;2023-11-22T04:57:23;25.80;;;19.55;;
3052;SDS011;1536;51.098;6.414;2023-11-22T04:59:51;32.65;;;21.20;;
3052;SDS011;1536;51.098;6.414;2023-11-22T05:02:18;28.42;;;19.77;;
3052;SDS011;1536;51.098;6.414;2023-11-22T05:04:45;30.85;;;20.70;;
3052;SDS011;1536;51.098;6.414;2023-11-22T05:07:13;31.05;;;21.13;;
3052;SDS011;1536;51.098;6.414;2023-11-22T05:09:40;31.02;;;19.90;;
3052;SDS011;1536;51.098;6.414;2023-11-22T05:12:08;26.75;;;19.67;;
3052;SDS011;1536;51.098;6.414;2023-11-22T05:14:35;28.45;;;18.95;;
3052;SDS011;1536;51.098;6.414;2023-11-22T05:17:04;36.45;;;21.02;;
3052;SDS011;1536;51.098;6.414;2023-11-22T05:19:30;28.88;;;20.65;;
3052;SDS011;1536;51.098;6.414;2023-11-22T05:21:57;31.98;;;20.15;;
3052;SDS011;1536;51.098;6.414;2023-11-22T05:24:24;27.40;;;19.08;;
3052;SDS011;1536;51.098;6.414;2023-11-22T05:26:51;34.22;;;18.77;;
3052;SDS011;1536;51.098;6.414;2023-11-22T05:29:17;28.25;;;19.45;;
3052;SDS011;1536;51.098;6.414;2023-11-22T05:31:44;28.60;;;20.40;;
3052;SDS011;1536;51.098;6.414;2023-11-22T05:34:12;36.35;;;19.85;;
3052;SDS011;1536;51.098;6.414;2023-11-22T05:36:39;26.73;;;19.13;;
3052;SDS011;1536;51.098;6.414;2023-11-22T05:39:06;29.50;;;19.00;;
3052;SDS011;1536;51.098;6.414;2023-11-22T05:41:33;25.40;;;18.48;;
3052;SDS011;1536;51.098;6.414;2023-11-22T05:44:01;32.40;;;20.20;;
3052;SDS011;1536;51.098;6.414;2023-11-22T05:46:28;25.98;;;19.30;;
3052;SDS011;1536;51.098;6.414;2023-11-22T05:48:55;27.02;;;19.27;;
3052;SDS011;1536;51.098;6.414;2023-11-22T05:51:23;24.92;;;18.25;;
3052;SDS011;1536;51.098;6.414;2023-11-22T05:53:50;29.60;;;18.52;;
3052;SDS011;1536;51.098;6.414;2023-11-22T05:56:18;26.67;;;17.92;;
3052;SDS011;1536;51.098;6.414;2023-11-22T05:58:45;24.75;;;17.75;;
3052;SDS011;1536;51.098;6.414;2023-11-22T06:01:12;29.65;;;21.13;;
3052;SDS011;1536;51.098;6.414;2023-11-22T06:03:39;25.80;;;18.35;;
3052;SDS011;1536;51.098;6.414;2023-11-22T06:06:06;25.55;;;17.17;;
3052;SDS011;1536;51.098;6.414;2023-11-22T06:08:34;25.95;;;17.45;;
3052;SDS011;1536;51.098;6.414;2023-11-22T06:11:01;25.70;;;17.98;;
3052;SDS011;1536;51.098;6.414;2023-11-22T06:13:28;27.30;;;18.33;;
3052;SDS011;1536;51.098;6.414;2023-11-22T06:15:55;27.05;;;19.35;;
3052;SDS011;1536;51.098;6.414;2023-11-22T06:18:22;24.15;;;19.02;;
3052;SDS011;1536;51.098;6.414;2023-11-22T06:20:54;21.75;;;16.50;;
3052;SDS011;1536;51.098;6.414;2023-11-22T06:23:23;26.20;;;17.42;;
3052;SDS011;1536;51.098;6.414;2023-11-22T06:25:51;23.45;;;17.58;;
3052;SDS011;1536;51.098;6.414;2023-11-22T06:28:18;19.77;;;14.70;;
3052;SDS011;1536;51.098;6.414;2023-11-22T06:30:45;25.25;;;16.73;;
3052;SDS011;1536;51.098;6.414;2023-11-22T06:33:11;26.70;;;16.98;;
3052;SDS011;1536;51.098;6.414;2023-11-22T06:35:38;21.15;;;16.38;;
3052;SDS011;1536;51.098;6.414;2023-11-22T06:38:07;23.08;;;16.27;;
3052;SDS011;1536;51.098;6.414;2023-11-22T06:40:34;25.90;;;16.48;;
3052;SDS011;1536;51.098;6.414;2023-11-22T06:43:02;26.60;;;18.48;;
3052;SDS011;1536;51.098;6.414;2023-11-22T06:45:29;25.60;;;16.92;;
3052;SDS011;1536;51.098;6.414;2023-11-22T06:47:57;23.88;;;16.88;;
3052;SDS011;1536;51.098;6.414;2023-11-22T06:50:24;21.17;;;14.55;;
3052;SDS011;1536;51.098;6.414;2023-11-22T06:52:50;22.00;;;15.30;;
3052;SDS011;1536;51.098;6.414;2023-11-22T06:55:18;23.23;;;15.45;;
3052;SDS011;1536;51.098;6.414;2023-11-22T06:57:45;21.85;;;15.40;;
3052;SDS011;1536;51.098;6.414;2023-11-22T07:00:13;26.05;;;18.17;;
3052;SDS011;1536;51.098;6.414;2023-11-22T07:02:41;24.65;;;18.60;;
3052;SDS011;1536;51.098;6.414;2023-11-22T07:05:08;25.40;;;16.23;;
3052;SDS011;1536;51.098;6.414;2023-11-22T07:07:35;17.75;;;14.65;;
3052;SDS011;1536;51.098;6.414;2023-11-22T07:10:02;25.88;;;16.55;;
3052;SDS011;1536;51.098;6.414;2023-11-22T07:12:30;22.08;;;16.10;;
3052;SDS011;1536;51.098;6.414;2023-11-22T07:14:57;22.13;;;15.45;;
3052;SDS011;1536;51.098;6.414;2023-11-22T07:17:25;19.95;;;14.55;;
3052;SDS011;1536;51.098;6.414;2023-11-22T07:19:54;22.20;;;14.45;;
3052;SDS011;1536;51.098;6.414;2023-11-22T07:22:20;24.55;;;14.35;;
3052;SDS011;1536;51.098;6.414;2023-11-22T07:24:49;19.05;;;14.43;;
3052;SDS011;1536;51.098;6.414;2023-11-22T07:27:16;22.58;;;15.13;;
3052;SDS011;1536;51.098;6.414;2023-11-22T07:29:44;19.40;;;15.32;;
3052;SDS011;1536;51.098;6.414;2023-11-22T07:32:11;23.20;;;14.30;;
3052;SDS011;1536;51.098;6.414;2023-11-22T07:34:40;16.85;;;12.68;;
3052;SDS011;1536;51.098;6.414;2023-11-22T07:37:07;22.00;;;14.25;;
3052;SDS011;1536;51.098;6.414;2023-11-22T07:39:34;20.42;;;14.60;;
3052;SDS011;1536;51.098;6.414;2023-11-22T07:42:01;20.23;;;15.15;;
3052;SDS011;1536;51.098;6.414;2023-11-22T07:44:28;23.90;;;15.52;;
3052;SDS011;1536;51.098;6.414;2023-11-22T07:46:57;26.50;;;17.02;;
3052;SDS011;1536;51.098;6.414;2023-11-22T07:49:25;22.38;;;16.02;;
3052;SDS011;1536;51.098;6.414;2023-11-22T07:51:53;23.20;;;18.52;;
3052;SDS011;1536;51.098;6.414;2023-11-22T07:54:21;24.70;;;17.60;;
3052;SDS011;1536;51.098;6.414;2023-11-22T07:56:48;23.20;;;16.55;;
3052;SDS011;1536;51.098;6.414;2023-11-22T07:59:17;25.98;;;16.63;;
3052;SDS011;1536;51.098;6.414;2023-11-22T08:01:44;22.60;;;16.38;;
3052;SDS011;1536;51.098;6.414;2023-11-22T08:04:12;24.75;;;19.25;;
3052;SDS011;1536;51.098;6.414;2023-11-22T08:06:39;27.67;;;17.52;;
3052;SDS011;1536;51.098;6.414;2023-11-22T08:09:08;23.58;;;17.27;;
3052;SDS011;1536;51.098;6.414;2023-11-22T08:11:34;24.52;;;16.30;;
3052;SDS011;1536;51.098;6.414;2023-11-22T08:14:01;21.33;;;16.38;;
3052;SDS011;1536;51.098;6.414;2023-11-22T08:16:28;24.55;;;18.48;;
3052;SDS011;1536;51.098;6.414;2023-11-22T08:19:03;24.38;;;16.00;;
3052;SDS011;1536;51.098;6.414;2023-11-22T08:21:30;20.17;;;14.55;;
3052;SDS011;1536;51.098;6.414;2023-11-22T08:23:57;19.65;;;14.75;;
3052;SDS011;1536;51.098;6.414;2023-11-22T08:26:25;22.77;;;14.63;;
3052;SDS011;1536;51.098;6.414;2023-11-22T08:28:53;22.13;;;14.57;;
3052;SDS011;1536;51.098;6.414;2023-11-22T08:31:21;18.85;;;14.50;;
3052;SDS011;1536;51.098;6.414;2023-11-22T08:33:48;17.75;;;12.68;;
3052;SDS011;1536;51.098;6.414;2023-11-22T08:36:14;22.70;;;13.82;;
3052;SDS011;1536;51.098;6.414;2023-11-22T08:38:41;20.48;;;13.10;;
3052;SDS011;1536;51.098;6.414;2023-11-22T08:41:09;17.45;;;13.80;;
3052;SDS011;1536;51.098;6.414;2023-11-22T08:43:39;15.50;;;12.02;;
3052;SDS011;1536;51.098;6.414;2023-11-22T08:46:06;15.32;;;12.07;;
3052;SDS011;1536;51.098;6.414;2023-11-22T08:48:33;17.75;;;13.52;;
3052;SDS011;1536;51.098;6.414;2023-11-22T08:51:00;21.38;;;13.02;;
3052;SDS011;1536;51.098;6.414;2023-11-22T08:53:29;17.38;;;11.60;;
3052;SDS011;1536;51.098;6.414;2023-11-22T08:55:55;16.30;;;12.60;;
3052;SDS011;1536;51.098;6.414;2023-11-22T08:58:22;18.38;;;12.93;;
3052;SDS011;1536;51.098;6.414;2023-11-22T09:00:50;16.23;;;13.35;;
3052;SDS011;1536;51.098;6.414;2023-11-22T09:03:18;16.40;;;13.20;;
3052;SDS011;1536;51.098;6.414;2023-11-22T09:05:45;20.20;;;12.95;;
3052;SDS011;1536;51.098;6.414;2023-11-22T09:08:14;15.20;;;12.75;;
3052;SDS011;1536;51.098;6.414;2023-11-22T09:10:40;16.45;;;13.60;;
3052;SDS011;1536;51.098;6.414;2023-11-22T09:13:07;17.23;;;12.63;;
3052;SDS011;1536;51.098;6.414;2023-11-22T09:15:34;16.10;;;13.20;;
3052;SDS011;1536;51.098;6.414;2023-11-22T09:18:03;17.00;;;12.30;;
3052;SDS011;1536;51.098;6.414;2023-11-22T09:20:29;13.77;;;11.25;;
3052;SDS011;1536;51.098;6.414;2023-11-22T09:22:56;15.55;;;12.82;;
3052;SDS011;1536;51.098;6.414;2023-11-22T09:25:23;15.25;;;12.63;;
3052;SDS011;1536;51.098;6.414;2023-11-22T09:27:51;17.55;;;13.18;;
3052;SDS011;1536;51.098;6.414;2023-11-22T09:30:20;17.92;;;12.50;;
3052;SDS011;1536;51.098;6.414;2023-11-22T09:32:59;15.18;;;12.50;;
3052;SDS011;1536;51.098;6.414;2023-11-22T09:35:28;17.20;;;12.77;;
3052;SDS011;1536;51.098;6.414;2023-11-22T09:37:56;17.63;;;13.98;;
3052;SDS011;1536;51.098;6.414;2023-11-22T09:40:23;17.55;;;12.68;;
3052;SDS011;1536;51.098;6.414;2023-11-22T09:42:50;18.17;;;12.85;;
3052;SDS011;1536;51.098;6.414;2023-11-22T09:45:18;16.30;;;12.30;;
3052;SDS011;1536;51.098;6.414;2023-11-22T09:47:45;12.90;;;11.50;;
3052;SDS011;1536;51.098;6.414;2023-11-22T09:50:13;14.02;;;11.18;;
3052;SDS011;1536;51.098;6.414;2023-11-22T09:52:48;13.00;;;11.40;;
3052;SDS011;1536;51.098;6.414;2023-11-22T09:55:19;17.10;;;10.38;;
3052;SDS011;1536;51.098;6.414;2023-11-22T09:57:48;14.30;;;9.60;;
3052;SDS011;1536;51.098;6.414;2023-11-22T10:00:16;14.55;;;10.85;;
3052;SDS011;1536;51.098;6.414;2023-11-22T10:02:44;19.80;;;11.90;;
3052;SDS011;1536;51.098;6.414;2023-11-22T10:05:11;13.32;;;10.27;;
3052;SDS011;1536;51.098;6.414;2023-11-22T10:07:37;13.65;;;10.50;;
3052;SDS011;1536;51.098;6.414;2023-11-22T10:10:06;12.35;;;10.85;;
3052;SDS011;1536;51.098;6.414;2023-11-22T10:12:36;12.77;;;10.75;;
3052;SDS011;1536;51.098;6.414;2023-11-22T10:15:12;16.60;;;11.80;;
3052;SDS011;1536;51.098;6.414;2023-11-22T10:17:39;12.27;;;10.48;;
3052;SDS011;1536;51.098;6.414;2023-11-22T10:20:07;11.20;;;9.93;;
3052;SDS011;1536;51.098;6.414;2023-11-22T10:22:45;9.38;;;8.30;;
3052;SDS011;1536;51.098;6.414;2023-11-22T10:25:15;11.77;;;8.98;;
3052;SDS011;1536;51.098;6.414;2023-11-22T10:27:44;12.40;;;9.50;;
3052;SDS011;1536;51.098;6.414;2023-11-22T10:30:12;14.57;;;9.32;;
3052;SDS011;1536;51.098;6.414;2023-11-22T10:32:40;18.65;;;10.05;;
3052;SDS011;1536;51.098;6.414;2023-11-22T10:35:07;12.40;;;9.25;;
3052;SDS011;1536;51.098;6.414;2023-11-22T10:37:35;14.32;;;9.77;;
3052;SDS011;1536;51.098;6.414;2023-11-22T10:40:02;12.20;;;8.57;;
3052;SDS011;1536;51.098;6.414;2023-11-22T10:42:32;12.45;;;9.85;;
3052;SDS011;1536;51.098;6.414;2023-11-22T10:45:00;12.40;;;10.20;;
3052;SDS011;1536;51.098;6.414;2023-11-22T10:47:29;12.13;;;9.75;;
3052;SDS011;1536;51.098;6.414;2023-11-22T10:49:57;13.23;;;9.52;;
3052;SDS011;1536;51.098;6.414;2023-11-22T10:52:26;10.75;;;9.65;;
3052;SDS011;1536;51.098;6.414;2023-11-22T10:54:59;11.50;;;9.20;;
3052;SDS011;1536;51.098;6.414;2023-11-22T10:57:30;13.00;;;10.20;;
3052;SDS011;1536;51.098;6.414;2023-11-22T11:00:08;10.52;;;7.93;;
3052;SDS011;1536;51.098;6.414;2023-11-22T11:02:41;11.38;;;8.85;;
3052;SDS011;1536;51.098;6.414;2023-11-22T11:05:14;13.15;;;10.02;;
3052;SDS011;1536;51.098;6.414;2023-11-22T11:07:44;12.02;;;10.25;;
3052;SDS011;1536;51.098;6.414;2023-11-22T11:10:17;17.45;;;12.15;;
3052;SDS011;1536;51.098;6.414;2023-11-22T11:12:48;21.02;;;13.80;;
3052;SDS011;1536;51.098;6.414;2023-11-22T11:15:15;20.05;;;15.05;;
3052;SDS011;1536;51.098;6.414;2023-11-22T11:17:42;20.08;;;14.40;;
3052;SDS011;1536;51.098;6.414;2023-11-22T11:20:13;19.27;;;14.60;;
3052;SDS011;1536;51.098;6.414;2023-11-22T11:22:42;15.27;;;12.45;;
3052;SDS011;1536;51.098;6.414;2023-11-22T11:25:11;19.40;;;12.63;;
3052;SDS011;1536;51.098;6.414;2023-11-22T11:27:41;19.02;;;12.10;;
3052;SDS011;1536;51.098;6.414;2023-11-22T11:33:07;15.45;;;12.95;;
3052;SDS011;1536;51.098;6.414;2023-11-22T11:35:37;16.25;;;13.23;;
3052;SDS011;1536;51.098;6.414;2023-11-22T11:38:04;24.63;;;15.35;;
3052;SDS011;1536;51.098;6.414;2023-11-22T11:40:34;23.92;;;14.52;;
3052;SDS011;1536;51.098;6.414;2023-11-22T11:43:01;19.50;;;14.23;;
3052;SDS011;1536;51.098;6.414;2023-11-22T11:45:28;19.17;;;14.05;;
3052;SDS011;1536;51.098;6.414;2023-11-22T11:47:56;17.70;;;14.13;;
3052;SDS011;1536;51.098;6.414;2023-11-22T11:50:24;20.27;;;15.05;;
3052;SDS011;1536;51.098;6.414;2023-11-22T11:52:51;18.83;;;14.45;;
3052;SDS011;1536;51.098;6.414;2023-11-22T11:55:19;20.77;;;14.32;;
3052;SDS011;1536;51.098;6.414;2023-11-22T11:57:46;17.48;;;12.80;;
3052;SDS011;1536;51.098;6.414;2023-11-22T12:00:13;15.32;;;12.27;;
3052;SDS011;1536;51.098;6.414;2023-11-22T12:02:41;17.35;;;12.38;;
3052;SDS011;1536;51.098;6.414;2023-11-22T12:05:08;18.33;;;12.15;;
3052;SDS011;1536;51.098;6.414;2023-11-22T12:07:36;12.88;;;9.57;;
3052;SDS011;1536;51.098;6.414;2023-11-22T12:10:03;13.60;;;10.10;;
3052;SDS011;1536;51.098;6.414;2023-11-22T12:12:31;10.43;;;9.05;;
3052;SDS011;1536;51.098;6.414;2023-11-22T12:14:58;9.68;;;8.68;;
3052;SDS011;1536;51.098;6.414;2023-11-22T12:17:25;11.05;;;8.52;;
3052;SDS011;1536;51.098;6.414;2023-11-22T12:19:53;11.38;;;9.05;;
3052;SDS011;1536;51.098;6.414;2023-11-22T12:22:34;10.15;;;8.60;;
3052;SDS011;1536;51.098;6.414;2023-11-22T12:25:02;10.77;;;8.05;;
3052;SDS011;1536;51.098;6.414;2023-11-22T12:27:30;10.13;;;9.02;;
3052;SDS011;1536;51.098;6.414;2023-11-22T12:29:56;10.27;;;8.13;;
3052;SDS011;1536;51.098;6.414;2023-11-22T12:32:23;11.75;;;8.55;;
3052;SDS011;1536;51.098;6.414;2023-11-22T12:34:50;12.00;;;9.25;;
3052;SDS011;1536;51.098;6.414;2023-11-22T12:37:19;14.70;;;9.48;;
3052;SDS011;1536;51.098;6.414;2023-11-22T12:39:47;11.25;;;8.35;;
3052;SDS011;1536;51.098;6.414;2023-11-22T12:42:15;12.75;;;9.95;;
3052;SDS011;1536;51.098;6.414;2023-11-22T12:44:48;14.70;;;10.88;;
3052;SDS011;1536;51.098;6.414;2023-11-22T12:47:30;11.77;;;9.32;;
3052;SDS011;1536;51.098;6.414;2023-11-22T12:50:00;13.00;;;9.60;;
3052;SDS011;1536;51.098;6.414;2023-11-22T12:52:27;9.95;;;8.13;;
3052;SDS011;1536;51.098;6.414;2023-11-22T12:54:54;7.57;;;5.90;;
3052;SDS011;1536;51.098;6.414;2023-11-22T12:57:27;8.52;;;6.95;;
3052;SDS011;1536;51.098;6.414;2023-11-22T13:00:19;9.70;;;6.88;;
3052;SDS011;1536;51.098;6.414;2023-11-22T13:02:46;7.30;;;6.53;;
3052;SDS011;1536;51.098;6.414;2023-11-22T13:08:32;11.30;;;8.80;;
3052;SDS011;1536;51.098;6.414;2023-11-22T13:10:59;13.30;;;9.25;;
3052;SDS011;1536;51.098;6.414;2023-11-22T13:13:27;12.18;;;8.52;;
3052;SDS011;1536;51.098;6.414;2023-11-22T13:15:55;7.70;;;6.90;;
3052;SDS011;1536;51.098;6.414;2023-11-22T13:18:23;9.82;;;7.72;;
3052;SDS011;1536;51.098;6.414;2023-11-22T13:20:50;12.32;;;9.20;;
3052;SDS011;1536;51.098;6.414;2023-11-22T13:23:16;12.30;;;8.75;;
3052;SDS011;1536;51.098;6.414;2023-11-22T13:25:43;10.27;;;7.95;;
3052;SDS011;1536;51.098;6.414;2023-11-22T13:28:11;11.02;;;8.77;;
3052;SDS011;1536;51.098;6.414;2023-11-22T13:30:39;11.30;;;8.77;;
3052;SDS011;1536;51.098;6.414;2023-11-22T13:33:06;10.50;;;8.30;;
3052;SDS011;1536;51.098;6.414;2023-11-22T13:35:33;12.38;;;9.20;;
3052;SDS011;1536;51.098;6.414;2023-11-22T13:38:03;13.55;;;10.10;;
3052;SDS011;1536;51.098;6.414;2023-11-22T13:40:35;10.38;;;8.43;;
3052;SDS011;1536;51.098;6.414;2023-11-22T13:43:04;13.02;;;9.15;;
3052;SDS011;1536;51.098;6.414;2023-11-22T13:45:32;9.98;;;7.25;;
3052;SDS011;1536;51.098;6.414;2023-11-22T13:48:04;12.93;;;8.10;;
3052;SDS011;1536;51.098;6.414;2023-11-22T13:50:31;10.05;;;7.45;;
3052;SDS011;1536;51.098;6.414;2023-11-22T13:52:59;9.05;;;6.72;;
3052;SDS011;1536;51.098;6.414;2023-11-22T13:55:26;7.55;;;5.88;;
3052;SDS011;1536;51.098;6.414;2023-11-22T13:57:53;9.00;;;6.93;;
3052;SDS011;1536;51.098;6.414;2023-11-22T14:00:21;10.98;;;7.22;;
3052;SDS011;1536;51.098;6.414;2023-11-22T14:02:50;9.50;;;7.32;;
3052;SDS011;1536;51.098;6.414;2023-11-22T14:05:19;9.55;;;7.70;;
3052;SDS011;1536;51.098;6.414;2023-11-22T14:07:46;8.18;;;7.38;;
3052;SDS011;1536;51.098;6.414;2023-11-22T14:10:13;11.82;;;8.73;;
3052;SDS011;1536;51.098;6.414;2023-11-22T14:12:41;10.40;;;7.72;;
3052;SDS011;1536;51.098;6.414;2023-11-22T14:15:09;11.88;;;8.05;;
3052;SDS011;1536;51.098;6.414;2023-11-22T14:17:37;13.85;;;8.35;;
3052;SDS011;1536;51.098;6.414;2023-11-22T14:20:06;10.25;;;7.45;;
3052;SDS011;1536;51.098;6.414;2023-11-22T14:22:35;11.48;;;8.10;;
3052;SDS011;1536;51.098;6.414;2023-11-22T14:25:03;9.98;;;8.30;;
3052;SDS011;1536;51.098;6.414;2023-11-22T14:27:32;8.85;;;7.70;;
3052;SDS011;1536;51.098;6.414;2023-11-22T14:29:59;9.88;;;8.38;;
3052;SDS011;1536;51.098;6.414;2023-11-22T14:32:30;10.13;;;8.77;;
3052;SDS011;1536;51.098;6.414;2023-11-22T14:34:57;12.40;;;9.40;;
3052;SDS011;1536;51.098;6.414;2023-11-22T14:37:24;8.80;;;7.60;;
3052;SDS011;1536;51.098;6.414;2023-11-22T14:39:52;13.98;;;9.70;;
3052;SDS011;1536;51.098;6.414;2023-11-22T14:42:19;9.85;;;8.45;;
3052;SDS011;1536;51.098;6.414;2023-11-22T14:44:46;11.25;;;7.85;;
3052;SDS011;1536;51.098;6.414;2023-11-22T14:47:13;11.93;;;8.68;;
3052;SDS011;1536;51.098;6.414;2023-11-22T14:49:44;10.77;;;9.15;;
3052;SDS011;1536;51.098;6.414;2023-11-22T14:52:11;15.77;;;8.95;;
3052;SDS011;1536;51.098;6.414;2023-11-22T14:54:38;10.60;;;8.82;;
3052;SDS011;1536;51.098;6.414;2023-11-22T14:57:06;12.82;;;7.82;;
3052;SDS011;1536;51.098;6.414;2023-11-22T14:59:35;11.20;;;8.30;;
3052;SDS011;1536;51.098;6.414;2023-11-22T15:02:02;11.27;;;8.98;;